Flight Track Log - Related Links

Times and Time Zones

All times are in EDT time to prevent confusion due to time zone crossing. See the SKW6306 flight status page for this flight to view local times or setup timezone preferences in your user account.

Time Position Orientation Groundspeed Altitude Reporting Facility
EDT Latitude Longitude Course Direction KTS MPH feet Rate Location/Type
Tue 11:28:48 PM 39.8333 -104.7833 244° Southwest 205 236 6,900  Level Denver TRACON
Tue 11:29:42 PM 39.8167 -104.8667 255° West 250 288 8,300 1,445 Climbing Denver TRACON
Tue 11:31:05 PM 39.7750 -104.9944 247° West 290 334 10,200 1,366 Climbing Denver Center
Tue 11:32:07 PM 39.7342 -105.1075 245° Southwest 320 368 11,600 1,452 Climbing Denver Center
Tue 11:33:09 PM 39.6956 -105.2172 245° Southwest 332 382 13,200 1,597 Climbing Denver Center
Tue 11:34:00 PM 39.6041 -105.4361 244° Southwest  Level FlightAware Approximate
Tue 11:34:11 PM 39.6572 -105.3264 246° West 334 384 14,900  Level Denver Center
Tue 11:35:13 PM 39.6139 -105.4458 245° Southwest 340 391 16,300 1,317 Climbing Denver Center
Tue 11:36:14 PM 39.5736 -105.5569 245° Southwest 341 392 17,600 976 Climbing Denver Center
Tue 11:37:16 PM 39.5353 -105.6725 247° West 351 404 18,300 976 Climbing Denver Center
Tue 11:38:17 PM 39.4994 -105.8056 251° West 364 419 19,600 1,122 Climbing Denver Center
Tue 11:39:19 PM 39.4664 -105.9317 251° West 356 410 20,600 871 Climbing Denver Center
Tue 11:40:21 PM 39.4292 -106.0553 249° West 367 422 21,400 585 Climbing Denver Center
Tue 11:41:22 PM 39.3961 -106.1761 251° West 375 432 21,800 585 Climbing Denver Center
Tue 11:42:24 PM 39.3544 -106.3217 250° West 384 442 22,600 780 Climbing Denver Center
Tue 11:43:25 PM 39.3206 -106.4464 251° West 385 443 23,400 829 Climbing Denver Center
Tue 11:44:27 PM 39.2783 -106.5922 250° West 386 444 24,300 732 Climbing Denver Center
Tue 11:45:28 PM 39.2414 -106.7158 249° West 385 443 24,900 585 Climbing Denver Center
Tue 11:46:30 PM 39.1861 -106.8292 238° Southwest 389 448 25,500 537 Climbing Denver Center
Tue 11:47:31 PM 39.1183 -106.9594 236° Southwest 390 449 26,000 537 Climbing Denver Center
Tue 11:48:33 PM 39.0606 -107.0719 237° Southwest 386 444 26,600 532 Climbing Denver Center
Tue 11:49:35 PM 38.9922 -107.2019 236° Southwest 392 451 27,100 488 Climbing Denver Center
Tue 11:50:36 PM 38.9322 -107.3178 236° Southwest 399 459 27,600 488 Climbing Denver Center
Tue 11:51:38 PM 38.8725 -107.4306 236° Southwest 399 459 28,100 537 Climbing Denver Center
Tue 11:52:39 PM 38.8033 -107.5622 236° Southwest 401 461 28,700 488 Climbing Denver Center
Tue 11:53:41 PM 38.7442 -107.6767 236° Southwest 402 463 29,100 439 Climbing Denver Center
Tue 11:54:42 PM 38.6739 -107.8100 236° Southwest 402 463 29,600 488 Climbing Denver Center
Tue 11:55:44 PM 38.6142 -107.9225 236° Southwest 399 459 30,100 488 Climbing Denver Center
Tue 11:56:45 PM 38.5544 -108.0331 235° Southwest 395 455 30,600 537 Climbing Denver Center
Tue 11:57:47 PM 38.4858 -108.1619 236° Southwest 393 452 31,200 537 Climbing Denver Center
Tue 11:58:48 PM 38.4281 -108.2725 236° Southwest 390 449 31,700 387 Climbing Denver Center
Tue 11:59:51 PM 38.3614 -108.3969 236° Southwest 382 440 32,000 144 Climbing Denver Center
Wed 12:00:53 AM 38.3019 -108.5053 235° Southwest 387 445 32,000  Level Denver Center
Wed 12:01:54 AM 38.2414 -108.6186 236° Southwest 398 458 32,000  Level Denver Center
Wed 12:02:56 AM 38.1700 -108.7486 235° Southwest 402 463 32,000  Level Denver Center
Wed 12:04:10 AM 38.1081 -108.8622 235° Southwest 405 466 32,000  Level Denver Center
Wed 12:05:11 AM 38.0283 -109.0067 235° Southwest 397 457 32,000  Level Denver Center
Wed 12:06:13 AM 37.9567 -109.1367 235° Southwest 403 464 32,000  Level Denver Center
Wed 12:07:14 AM 37.8950 -109.2483 235° Southwest 404 465 32,000  Level Denver Center
Wed 12:08:16 AM 37.8336 -109.3583 235° Southwest 403 464 32,000  Level Denver Center
Wed 12:09:18 AM 37.7617 -109.4878 235° Southwest 401 461 32,000  Level Denver Center
Wed 12:10:19 AM 37.6992 -109.6006 235° Southwest 407 468 32,000  Level Denver Center
Wed 12:11:21 AM 37.6275 -109.7286 235° Southwest 404 465 32,000  Level Denver Center
Wed 12:12:34 AM 37.5656 -109.8394 235° Southwest 404 465 32,000  Level Denver Center
Wed 12:13:36 AM 37.4819 -109.9861 234° Southwest 404 465 32,000  Level Denver Center
Wed 12:14:37 AM 37.4192 -110.0975 235° Southwest 407 468 32,000  Level Denver Center
Wed 12:15:39 AM 37.3453 -110.2272 234° Southwest 412 474 32,000  Level Denver Center
Wed 12:16:40 AM 37.2772 -110.3436 234° Southwest 414 476 32,000  Level Denver Center
Wed 12:17:41 AM 37.2106 -110.4606 234° Southwest 414 476 32,000  Level Denver Center
Wed 12:18:43 AM 37.1442 -110.5758 234° Southwest 410 472 32,000  Level Denver Center
Wed 12:19:44 AM 37.0772 -110.6936 235° Southwest 413 475 32,000  Level Denver Center
Wed 12:20:45 AM 37.0086 -110.8111 234° Southwest 417 480 32,000  Level Denver Center
Wed 12:21:47 AM 36.9406 -110.9275 234° Southwest 415 478 32,000  Level Denver Center
Wed 12:23:00 AM 36.8731 -111.0431 234° Southwest 413 475 32,000  Level Denver Center
Wed 12:24:02 AM 36.7803 -111.2042 234° Southwest 407 468 32,000  Level Denver Center
Wed 12:25:15 AM 36.7111 -111.3206 233° Southwest 414 476 32,000  Level Denver Center
Wed 12:26:17 AM 36.6286 -111.4611 234° Southwest 417 480 32,000  Level Denver Center
Wed 12:27:18 AM 36.5589 -111.5778 233° Southwest 418 481 32,000  Level Denver Center
Wed 12:28:31 AM 36.4894 -111.6936 233° Southwest 417 480 32,000  Level Denver Center
Wed 12:29:33 AM 36.4064 -111.8331 234° Southwest 416 479 32,000  Level Denver Center
Wed 12:30:16 AM 36.3486 -111.9258 232° Southwest 420 483 32,000  Level Los Angeles Center
Wed 12:31:17 AM 36.2800 -112.0433 234° Southwest 421 484 32,000  Level Los Angeles Center
Wed 12:32:19 AM 36.2103 -112.1589 233° Southwest 420 483 32,000  Level Los Angeles Center
Wed 12:33:20 AM 36.1411 -112.2758 234° Southwest 420 483 32,000  Level Los Angeles Center
Wed 12:34:22 AM 36.0708 -112.3894 233° Southwest 417 480 32,000  Level Los Angeles Center
Wed 12:35:23 AM 36.0014 -112.5031 233° Southwest 414 476 32,000  Level Los Angeles Center
Wed 12:36:25 AM 35.9300 -112.6192 233° Southwest 422 486 32,000  Level Los Angeles Center
Wed 12:37:28 AM 35.8600 -112.7342 233° Southwest 426 490 32,000  Level Los Angeles Center
Wed 12:38:29 AM 35.7758 -112.8725 233° Southwest 424 488 32,000  Level Los Angeles Center
Wed 12:39:30 AM 35.7050 -112.9875 233° Southwest 427 491 32,000  Level Los Angeles Center
Wed 12:40:32 AM 35.6353 -113.0981 232° Southwest 430 495 32,000  Level Los Angeles Center
Wed 12:41:33 AM 35.5633 -113.2136 233° Southwest 426 490 32,000  Level Los Angeles Center
Wed 12:42:35 AM 35.4917 -113.3306 233° Southwest 428 493 32,000  Level Los Angeles Center
Wed 12:43:37 AM 35.4056 -113.4681 232° Southwest 429 494 32,000  Level Los Angeles Center
Wed 12:44:38 AM 35.3339 -113.5817 232° Southwest 427 491 32,000  Level Los Angeles Center
Wed 12:45:40 AM 35.2617 -113.6967 232° Southwest 428 493 32,000  Level Los Angeles Center
Wed 12:46:42 AM 35.1892 -113.8114 232° Southwest 429 494 32,000 -98 Level Los Angeles Center
Wed 12:47:43 AM 35.1178 -113.9256 233° Southwest 429 494 31,800 -341 Descending Los Angeles Center
Wed 12:48:45 AM 35.0367 -114.0511 232° Southwest 440 506 31,300 -484 Descending Los Angeles Center
Wed 12:49:47 AM 34.9633 -114.1667 232° Southwest 434 499 30,800 -532 Descending Los Angeles Center
Wed 12:50:49 AM 34.8731 -114.3069 232° Southwest 438 504 30,200 -387 Descending Los Angeles Center
Wed 12:51:51 AM 34.7978 -114.4231 232° Southwest 437 503 30,000 -98 Descending Los Angeles Center
Wed 12:52:52 AM 34.7225 -114.5408 232° Southwest 440 506 30,000  Level Los Angeles Center
Wed 12:53:54 AM 34.6458 -114.6542 231° Southwest 432 497 30,000 -145 Level Los Angeles Center
Wed 12:54:56 AM 34.5703 -114.7686 231° Southwest 435 501 29,700 -823 Descending Los Angeles Center
Wed 12:55:58 AM 34.4931 -114.8836 231° Southwest 438 504 28,300 -1,366 Descending Los Angeles Center
Wed 12:56:59 AM 34.4156 -115.0017 232° Southwest 446 513 26,900 -1,355 Descending Los Angeles Center
Wed 12:58:02 AM 34.3367 -115.1208 231° Southwest 452 520 25,500 -1,452 Descending Los Angeles Center
Wed 12:59:03 AM 34.2406 -115.2608 230° Southwest 452 520 23,900 -1,902 Descending Los Angeles Center
Wed 01:00:05 AM 34.1631 -115.3764 231° Southwest 444 511 21,600 -2,439 Descending Los Angeles Center
Wed 01:01:06 AM 34.0897 -115.4853 231° Southwest 426 490 18,900 -2,780 Descending Los Angeles Center
Wed 01:02:08 AM 34.0175 -115.5911 231° Southwest 412 474 15,900 -2,565 Descending Los Angeles Center
Wed 01:03:10 AM 33.9483 -115.6922 231° Southwest 397 457 13,600 -2,244 Descending Los Angeles Center
Wed 01:04:11 AM 33.9094 -115.8036 247° West 378 435 11,300 -1,707 Descending Los Angeles Center
Wed 01:05:13 AM 33.9036 -115.9186 267° West 354 407 10,100 -1,548 Descending Los Angeles Center
Wed 01:06:15 AM 33.8908 -116.0322 262° West 315 362 8,100 -1,805 Descending Los Angeles Center
Wed 01:07:16 AM 33.8592 -116.1181 246° West 294 338 6,400 -1,317 Descending Los Angeles Center
Wed 01:08:18 AM 33.8306 -116.1900 244° Southwest 286 329 5,400 2,226 Descending Los Angeles Center
Wed 01:09:20 AM 33.7967 -116.2803 246° West 283 326 11,000 -1,136 Climbing Los Angeles Center
Wed 01:11:07 AM 33.7667 -116.4167 255° West 194 223 2,200 -3,466 Descending Southern California TRACON
Wed 01:12:01 AM 33.7833 -116.4500 301° West 168 193 1,700 -684 Descending Southern California TRACON
Wed 01:13:01 AM 33.8000 -116.4833 301° West 136 157 900 -800 Descending Southern California TRACON
Wed 01:15:00 AM 33.8167 -116.5000 256° West  Level FlightAware Approximate
Wed 01:22:00 AM 33.8297 -116.5067 256° West  Level Estimated

Login

Don't have an account? Register now (free) for customized features, flight alerts, and more!